Time;durP1;ratioP1;P1;durP2;ratioP2;P2;SDS_P1;SDS_P2;PMS_P1;PMS_P2;Temp;Humidity;BMP_temperature;BMP_pressure;BME280_temperature;BME280_humidity;BME280_pressure;Samples;Min_cycle;Max_cycle;Signal;HPM_P1;HPM_P2
2022/07/15 00:00:48;;;;;;;7.73;2.00;;;;;;;;;;4996291;28;20402;-77
2022/07/15 00:03:15;;;;;;;2.97;1.60;;;;;;;;;;4995878;28;20830;-75
2022/07/15 00:05:42;;;;;;;3.00;1.77;;;;;;;;;;4995006;28;20402;-75
2022/07/15 00:08:08;;;;;;;1.43;1.33;;;;;;;;;;4996468;28;20422;-77
2022/07/15 00:10:34;;;;;;;4.83;2.60;;;;;;;;;;4996432;28;20758;-75
2022/07/15 00:13:00;;;;;;;2.60;1.60;;;;;;;;;;4995685;28;20417;-76
2022/07/15 00:15:28;;;;;;;3.17;1.93;;;;;;;;;;4996184;28;20493;-76
2022/07/15 00:17:54;;;;;;;5.23;1.43;;;;;;;;;;4994605;28;20906;-76
2022/07/15 00:20:21;;;;;;;4.50;2.00;;;;;;;;;;4996056;28;20410;-75
2022/07/15 00:22:48;;;;;;;3.63;2.20;;;;;;;;;;4995596;28;20451;-75
2022/07/15 00:25:14;;;;;;;4.40;2.00;;;;;;;;;;4995970;28;20756;-76
2022/07/15 00:27:53;;;;;;;7.83;2.23;;;;;;;;;;4996067;28;20750;-75
2022/07/15 00:30:19;;;;;;;9.43;2.10;;;;;;;;;;4994506;28;20890;-76
2022/07/15 00:32:46;;;;;;;5.20;1.90;;;;;;;;;;4995569;28;20736;-75
2022/07/15 00:35:12;;;;;;;2.70;2.17;;;;;;;;;;4995774;28;20410;-75
2022/07/15 00:37:38;;;;;;;4.17;2.00;;;;;;;;;;4995742;28;20390;-76
2022/07/15 00:40:04;;;;;;;9.37;2.40;;;;;;;;;;4995599;28;20466;-75
2022/07/15 00:42:46;;;;;;;4.90;2.10;;;;;;;;;;4995160;28;20562;-76
2022/07/15 00:45:13;;;;;;;6.43;2.30;;;;;;;;;;4995423;28;20410;-76
2022/07/15 00:47:39;;;;;;;5.87;2.10;;;;;;;;;;4995432;28;20794;-75
2022/07/15 00:50:06;;;;;;;9.17;2.73;;;;;;;;;;4995643;28;20763;-75
2022/07/15 00:52:34;;;;;;;6.30;3.03;;;;;;;;;;4997162;28;20419;-75
2022/07/15 00:55:01;;;;;;;9.27;2.87;;;;;;;;;;4995484;28;20398;-75
2022/07/15 00:57:27;;;;;;;6.47;2.70;;;;;;;;;;4995368;28;20447;-75
2022/07/15 00:59:54;;;;;;;3.93;2.27;;;;;;;;;;4995222;28;20496;-75
2022/07/15 01:02:20;;;;;;;6.10;2.60;;;;;;;;;;4996008;28;20442;-76
2022/07/15 01:04:47;;;;;;;8.60;2.80;;;;;;;;;;4995708;28;20867;-77
2022/07/15 01:07:13;;;;;;;2.90;2.00;;;;;;;;;;4994963;28;20551;-78
2022/07/15 01:09:39;;;;;;;3.93;2.40;;;;;;;;;;4995105;28;20443;-77
2022/07/15 01:12:06;;;;;;;8.30;2.30;;;;;;;;;;4993850;28;20502;-77
2022/07/15 01:14:31;;;;;;;8.63;3.40;;;;;;;;;;4994866;28;20408;-77
2022/07/15 01:16:57;;;;;;;6.73;3.83;;;;;;;;;;4995183;28;20416;-77
2022/07/15 01:19:23;;;;;;;6.70;2.70;;;;;;;;;;4995046;28;20390;-77
2022/07/15 01:21:49;;;;;;;10.63;2.50;;;;;;;;;;4994870;28;20430;-76
2022/07/15 01:24:15;;;;;;;4.40;2.93;;;;;;;;;;4994592;28;20453;-77
2022/07/15 01:26:41;;;;;;;4.50;3.57;;;;;;;;;;4994732;28;20485;-76
2022/07/15 01:29:07;;;;;;;4.13;2.20;;;;;;;;;;4994700;28;20394;-77
2022/07/15 01:31:33;;;;;;;9.73;2.20;;;;;;;;;;4994579;28;20427;-77
2022/07/15 01:33:59;;;;;;;5.03;2.70;;;;;;;;;;4994101;28;20443;-78
2022/07/15 01:36:25;;;;;;;5.70;2.97;;;;;;;;;;4994587;28;20412;-77
2022/07/15 01:38:51;;;;;;;8.00;2.63;;;;;;;;;;4994414;28;20397;-77
2022/07/15 01:41:17;;;;;;;5.40;2.87;;;;;;;;;;4994482;28;20461;-77
2022/07/15 01:43:43;;;;;;;3.63;2.20;;;;;;;;;;4993793;28;20589;-76
2022/07/15 01:46:09;;;;;;;9.67;2.83;;;;;;;;;;4994352;28;20444;-76
2022/07/15 01:51:20;;;;;;;3.80;2.50;;;;;;;;;;4994670;28;20837;-77
2022/07/15 01:53:46;;;;;;;7.60;3.30;;;;;;;;;;4992349;28;20441;-77
2022/07/15 01:56:12;;;;;;;10.80;3.00;;;;;;;;;;4994145;28;20927;-77
2022/07/15 01:58:38;;;;;;;8.57;3.10;;;;;;;;;;4992786;28;20405;-77
2022/07/15 02:01:04;;;;;;;6.27;3.23;;;;;;;;;;4992596;28;20427;-76
2022/07/15 02:03:30;;;;;;;10.97;3.10;;;;;;;;;;4993345;28;20478;-76
2022/07/15 02:05:56;;;;;;;5.97;2.63;;;;;;;;;;4994081;28;20466;-77
2022/07/15 02:08:22;;;;;;;5.40;3.20;;;;;;;;;;4994013;28;20386;-77
2022/07/15 02:10:48;;;;;;;8.20;2.73;;;;;;;;;;4994003;28;20427;-77
2022/07/15 02:13:14;;;;;;;4.77;2.73;;;;;;;;;;4993133;28;20443;-76
2022/07/15 02:15:41;;;;;;;7.70;3.53;;;;;;;;;;4993949;28;20422;-77
2022/07/15 02:18:08;;;;;;;7.27;3.23;;;;;;;;;;4994037;28;20448;-77
2022/07/15 02:20:34;;;;;;;5.67;3.20;;;;;;;;;;4993824;28;20831;-77
2022/07/15 02:23:01;;;;;;;6.40;3.07;;;;;;;;;;4993558;28;20812;-76
2022/07/15 02:25:31;;;;;;;5.33;2.77;;;;;;;;;;4993701;28;20460;-77
2022/07/15 02:27:58;;;;;;;11.10;3.10;;;;;;;;;;4993539;28;20425;-78
2022/07/15 02:30:29;;;;;;;10.47;3.77;;;;;;;;;;4993657;28;20503;-77
2022/07/15 02:32:58;;;;;;;7.77;3.10;;;;;;;;;;4993302;28;20829;-76
2022/07/15 02:35:24;;;;;;;7.83;3.77;;;;;;;;;;4993318;28;20394;-77
2022/07/15 02:37:51;;;;;;;8.97;4.00;;;;;;;;;;4993455;28;20394;-77
2022/07/15 02:40:17;;;;;;;9.67;3.50;;;;;;;;;;4993412;28;20390;-77
2022/07/15 02:42:50;;;;;;;7.77;3.20;;;;;;;;;;4993160;28;20560;-76
2022/07/15 02:45:16;;;;;;;8.57;3.47;;;;;;;;;;4993670;28;20412;-76
2022/07/15 02:47:42;;;;;;;8.63;3.50;;;;;;;;;;4993476;28;20909;-76
2022/07/15 02:50:08;;;;;;;5.67;3.03;;;;;;;;;;4993358;28;20395;-76
2022/07/15 02:52:35;;;;;;;4.40;2.70;;;;;;;;;;4992903;28;20389;-77
2022/07/15 02:55:01;;;;;;;7.10;3.70;;;;;;;;;;4993397;28;20390;-76
2022/07/15 02:57:27;;;;;;;10.77;3.30;;;;;;;;;;4993573;28;20434;-77
2022/07/15 02:59:53;;;;;;;3.77;2.70;;;;;;;;;;4992977;28;20469;-76
2022/07/15 03:02:20;;;;;;;6.90;3.17;;;;;;;;;;4992860;28;20559;-77
2022/07/15 03:04:46;;;;;;;4.87;3.03;;;;;;;;;;4993232;28;20412;-77
2022/07/15 03:07:13;;;;;;;5.17;3.27;;;;;;;;;;4993200;28;20431;-77
2022/07/15 03:09:39;;;;;;;5.73;3.00;;;;;;;;;;4993096;28;20432;-77
2022/07/15 03:12:05;;;;;;;7.70;3.47;;;;;;;;;;4992966;28;20390;-79
2022/07/15 03:14:31;;;;;;;8.93;3.30;;;;;;;;;;4993004;28;20877;-76
2022/07/15 03:16:58;;;;;;;5.20;2.83;;;;;;;;;;4993254;28;20435;-76
2022/07/15 03:19:24;;;;;;;7.90;3.67;;;;;;;;;;4993012;28;20406;-77
2022/07/15 03:21:50;;;;;;;7.93;3.13;;;;;;;;;;4993264;28;20387;-77
2022/07/15 03:24:16;;;;;;;11.00;3.00;;;;;;;;;;4992828;28;20588;-76
2022/07/15 03:26:42;;;;;;;4.97;2.83;;;;;;;;;;4997002;28;20415;-77
2022/07/15 03:29:09;;;;;;;6.73;3.50;;;;;;;;;;4996980;28;20460;-76
2022/07/15 03:31:36;;;;;;;3.90;2.70;;;;;;;;;;4996916;28;20386;-77
2022/07/15 03:34:02;;;;;;;11.30;3.80;;;;;;;;;;4996588;28;20410;-77
2022/07/15 03:36:28;;;;;;;11.50;3.77;;;;;;;;;;4996648;28;20778;-76
2022/07/15 03:38:54;;;;;;;13.03;3.10;;;;;;;;;;4996815;28;20448;-77
2022/07/15 03:41:21;;;;;;;5.50;3.03;;;;;;;;;;4996699;28;20870;-77
2022/07/15 03:43:47;;;;;;;5.67;2.97;;;;;;;;;;4996385;28;20433;-77
2022/07/15 03:46:15;;;;;;;7.90;3.67;;;;;;;;;;4996630;28;20418;-77
2022/07/15 03:48:42;;;;;;;10.13;3.37;;;;;;;;;;4996491;28;20460;-77
2022/07/15 03:51:08;;;;;;;7.70;3.67;;;;;;;;;;4996600;28;20425;-77
2022/07/15 03:53:34;;;;;;;12.30;3.37;;;;;;;;;;4996099;28;20463;-77
2022/07/15 03:56:00;;;;;;;7.07;3.03;;;;;;;;;;4996841;28;20412;-76
2022/07/15 03:58:26;;;;;;;10.67;3.37;;;;;;;;;;4996364;28;20416;-78
2022/07/15 04:00:52;;;;;;;9.00;3.80;;;;;;;;;;4996275;28;20406;-77
2022/07/15 04:03:18;;;;;;;7.50;4.10;;;;;;;;;;4995757;28;20953;-77
2022/07/15 04:05:44;;;;;;;5.67;3.00;;;;;;;;;;4996380;28;20488;-77
2022/07/15 04:10:42;;;;;;;9.73;3.07;;;;;;;;;;5033911;28;20478;-75
2022/07/15 04:13:08;;;;;;;9.83;3.30;;;;;;;;;;5042057;28;20406;-76
2022/07/15 04:15:34;;;;;;;4.87;3.07;;;;;;;;;;5055380;28;20376;-75
2022/07/15 04:18:01;;;;;;;11.77;3.13;;;;;;;;;;5055300;28;20455;-76
2022/07/15 04:20:27;;;;;;;4.10;3.00;;;;;;;;;;5055398;28;20386;-76
2022/07/15 04:22:53;;;;;;;7.57;2.70;;;;;;;;;;5054587;28;20974;-75
2022/07/15 04:25:20;;;;;;;11.53;3.03;;;;;;;;;;5054923;28;20900;-76
2022/07/15 04:27:47;;;;;;;10.53;2.87;;;;;;;;;;5054876;28;20387;-76
2022/07/15 04:30:13;;;;;;;8.40;3.33;;;;;;;;;;5055036;28;20391;-75
2022/07/15 04:32:39;;;;;;;6.10;3.10;;;;;;;;;;5054499;28;20428;-76
2022/07/15 04:35:06;;;;;;;6.30;3.57;;;;;;;;;;5054812;28;20408;-75
2022/07/15 04:37:32;;;;;;;15.53;4.27;;;;;;;;;;5054794;28;20447;-76
2022/07/15 04:39:58;;;;;;;6.30;3.80;;;;;;;;;;5054831;28;20864;-76
2022/07/15 04:42:24;;;;;;;7.63;4.20;;;;;;;;;;5053106;28;20495;-76
2022/07/15 04:44:50;;;;;;;9.00;3.80;;;;;;;;;;5054838;28;20413;-75
2022/07/15 04:47:16;;;;;;;8.10;3.17;;;;;;;;;;5054752;28;20861;-76
2022/07/15 04:52:27;;;;;;;9.80;4.23;;;;;;;;;;5054563;28;20971;-75
2022/07/15 04:54:54;;;;;;;8.80;4.20;;;;;;;;;;5054631;28;20508;-76
2022/07/15 04:57:20;;;;;;;9.60;4.47;;;;;;;;;;5053195;28;20395;-76
2022/07/15 04:59:46;;;;;;;6.70;4.40;;;;;;;;;;5054627;28;20897;-76
2022/07/15 05:02:12;;;;;;;13.20;4.30;;;;;;;;;;5054602;28;20421;-77
2022/07/15 05:04:38;;;;;;;12.37;4.37;;;;;;;;;;5054430;28;20914;-76
2022/07/15 05:07:05;;;;;;;9.07;4.27;;;;;;;;;;5054627;28;20420;-77
2022/07/15 05:09:31;;;;;;;8.27;3.73;;;;;;;;;;5054533;28;20892;-76
2022/07/15 05:11:57;;;;;;;8.30;5.10;;;;;;;;;;5054323;28;20428;-76
2022/07/15 05:14:23;;;;;;;9.70;4.40;;;;;;;;;;5053903;28;20506;-75
2022/07/15 05:16:49;;;;;;;7.37;4.63;;;;;;;;;;5054233;28;20444;-75
2022/07/15 05:19:15;;;;;;;10.23;4.80;;;;;;;;;;5054270;28;20423;-75
2022/07/15 05:21:41;;;;;;;14.27;4.67;;;;;;;;;;5054189;28;20501;-75
2022/07/15 05:24:07;;;;;;;8.03;4.67;;;;;;;;;;5053873;28;20479;-76
2022/07/15 05:26:33;;;;;;;13.27;5.43;;;;;;;;;;5053158;28;20917;-76
2022/07/15 05:28:59;;;;;;;5.97;4.70;;;;;;;;;;5054519;28;20412;-75
2022/07/15 05:31:25;;;;;;;12.90;4.37;;;;;;;;;;5053808;28;20395;-77
2022/07/15 05:33:52;;;;;;;11.80;5.13;;;;;;;;;;5053280;28;20434;-75
2022/07/15 05:36:18;;;;;;;9.13;4.97;;;;;;;;;;5053939;28;20396;-76
2022/07/15 05:38:44;;;;;;;14.60;5.40;;;;;;;;;;5053945;28;20748;-75
2022/07/15 05:41:10;;;;;;;8.80;4.77;;;;;;;;;;5053852;28;20412;-76
2022/07/15 05:43:36;;;;;;;14.60;4.30;;;;;;;;;;5052056;28;20438;-75
2022/07/15 05:46:02;;;;;;;8.17;5.50;;;;;;;;;;5053792;28;20770;-76
2022/07/15 05:48:28;;;;;;;7.43;4.70;;;;;;;;;;5051592;28;20391;-76
2022/07/15 05:50:54;;;;;;;12.47;5.03;;;;;;;;;;5053589;28;20413;-75
2022/07/15 05:53:21;;;;;;;14.97;4.97;;;;;;;;;;5053179;28;20451;-75
2022/07/15 05:55:47;;;;;;;16.20;5.53;;;;;;;;;;5053423;28;20398;-76
2022/07/15 05:58:13;;;;;;;9.40;5.17;;;;;;;;;;5053569;28;20417;-75
2022/07/15 06:00:39;;;;;;;8.57;4.80;;;;;;;;;;5053266;28;20418;-75
2022/07/15 06:03:05;;;;;;;15.20;4.90;;;;;;;;;;5053074;28;21017;-76
2022/07/15 06:05:32;;;;;;;8.23;4.60;;;;;;;;;;5052005;28;20924;-76
2022/07/15 06:07:58;;;;;;;9.07;4.00;;;;;;;;;;5053432;28;20416;-76
2022/07/15 06:10:24;;;;;;;9.60;5.07;;;;;;;;;;5054529;28;20812;-76
2022/07/15 06:12:53;;;;;;;16.77;5.20;;;;;;;;;;5051476;28;20958;-75
2022/07/15 06:15:19;;;;;;;8.40;4.50;;;;;;;;;;5053174;28;20427;-76
2022/07/15 06:17:45;;;;;;;10.20;4.23;;;;;;;;;;5053065;28;20416;-76
2022/07/15 06:20:11;;;;;;;7.97;4.47;;;;;;;;;;5053121;28;20417;-76
2022/07/15 06:22:37;;;;;;;10.60;5.30;;;;;;;;;;5052757;28;20562;-76
2022/07/15 06:25:03;;;;;;;12.07;5.60;;;;;;;;;;5035282;28;20421;-76
2022/07/15 06:27:30;;;;;;;10.63;4.50;;;;;;;;;;5053127;28;20485;-76
2022/07/15 06:29:59;;;;;;;10.33;5.73;;;;;;;;;;5053126;28;20496;-75
2022/07/15 06:32:26;;;;;;;7.77;4.73;;;;;;;;;;5051620;28;20428;-76
2022/07/15 06:34:52;;;;;;;11.10;5.13;;;;;;;;;;5052902;28;20391;-75
2022/07/15 06:37:18;;;;;;;12.03;4.47;;;;;;;;;;5052598;28;20412;-75
2022/07/15 06:39:44;;;;;;;11.07;6.20;;;;;;;;;;5052714;28;20390;-75
2022/07/15 06:42:10;;;;;;;9.57;4.50;;;;;;;;;;5052514;28;20462;-75
2022/07/15 06:44:36;;;;;;;8.83;4.77;;;;;;;;;;5052481;28;20444;-76
2022/07/15 06:47:03;;;;;;;12.20;4.53;;;;;;;;;;5052896;28;20773;-76
2022/07/15 06:49:29;;;;;;;11.23;4.80;;;;;;;;;;5052777;28;20405;-76
2022/07/15 06:51:55;;;;;;;8.17;4.40;;;;;;;;;;5051347;28;20451;-75
2022/07/15 06:54:21;;;;;;;8.70;4.27;;;;;;;;;;5052361;28;20411;-76
2022/07/15 06:56:47;;;;;;;8.00;4.20;;;;;;;;;;5052675;28;20387;-76
2022/07/15 06:59:14;;;;;;;12.97;3.70;;;;;;;;;;5054563;28;20417;-76
2022/07/15 07:01:40;;;;;;;5.37;3.03;;;;;;;;;;5056661;28;20404;-76
2022/07/15 07:04:06;;;;;;;7.63;3.30;;;;;;;;;;5056146;28;20926;-76
2022/07/15 07:06:32;;;;;;;9.80;3.60;;;;;;;;;;5056729;28;20379;-76
2022/07/15 07:08:58;;;;;;;8.00;3.43;;;;;;;;;;5056600;28;20897;-76
2022/07/15 07:11:24;;;;;;;9.40;3.30;;;;;;;;;;5056937;28;20382;-76
2022/07/15 07:13:51;;;;;;;7.07;2.30;;;;;;;;;;5056720;28;20413;-76
2022/07/15 07:16:17;;;;;;;8.73;2.87;;;;;;;;;;5056328;28;20496;-76
2022/07/15 07:18:45;;;;;;;21.37;3.67;;;;;;;;;;5056632;28;20391;-75
2022/07/15 07:21:11;;;;;;;8.20;2.23;;;;;;;;;;5056542;28;20405;-76
2022/07/15 07:23:39;;;;;;;7.43;2.67;;;;;;;;;;5056134;28;20554;-76
2022/07/15 07:26:05;;;;;;;7.37;2.60;;;;;;;;;;5056513;28;20409;-76
2022/07/15 07:28:32;;;;;;;8.90;2.60;;;;;;;;;;5054958;28;20912;-76
2022/07/15 07:30:58;;;;;;;3.80;2.13;;;;;;;;;;5056203;28;20409;-75
2022/07/15 07:33:24;;;;;;;9.33;2.37;;;;;;;;;;5054412;28;20452;-75
2022/07/15 07:35:51;;;;;;;4.77;2.43;;;;;;;;;;5056218;28;20409;-74
2022/07/15 07:38:17;;;;;;;7.73;2.07;;;;;;;;;;5055960;28;20942;-74
2022/07/15 07:40:43;;;;;;;10.60;1.97;;;;;;;;;;5056168;28;20416;-74
2022/07/15 07:43:09;;;;;;;7.40;2.07;;;;;;;;;;5055513;28;20521;-73
2022/07/15 07:45:35;;;;;;;6.70;2.17;;;;;;;;;;5055691;28;20474;-74
2022/07/15 07:48:02;;;;;;;5.23;1.93;;;;;;;;;;5055221;28;20491;-74
2022/07/15 07:50:28;;;;;;;4.03;1.87;;;;;;;;;;5055208;28;20396;-74
2022/07/15 07:52:54;;;;;;;5.97;1.43;;;;;;;;;;5055118;28;20402;-74
2022/07/15 07:55:20;;;;;;;4.40;1.60;;;;;;;;;;5055801;28;20383;-74
2022/07/15 07:57:48;;;;;;;8.67;2.00;;;;;;;;;;5056089;28;20827;-74
2022/07/15 08:00:14;;;;;;;7.40;1.97;;;;;;;;;;5055597;28;20394;-74
2022/07/15 08:02:41;;;;;;;5.93;1.83;;;;;;;;;;5054968;28;20479;-74
2022/07/15 08:05:08;;;;;;;4.23;1.63;;;;;;;;;;5055536;28;20379;-74
2022/07/15 08:07:35;;;;;;;6.73;2.50;;;;;;;;;;5055588;28;20486;-74
2022/07/15 08:10:02;;;;;;;5.60;2.10;;;;;;;;;;5055092;28;20756;-74
2022/07/15 08:12:28;;;;;;;2.83;1.43;;;;;;;;;;5054833;28;20444;-74
2022/07/15 08:14:54;;;;;;;3.33;1.73;;;;;;;;;;5055506;28;20480;-74
2022/07/15 08:17:21;;;;;;;6.00;1.87;;;;;;;;;;5055491;28;20440;-74
2022/07/15 08:19:46;;;;;;;4.00;1.30;;;;;;;;;;5055447;28;20924;-74
2022/07/15 08:22:13;;;;;;;3.20;1.50;;;;;;;;;;5055297;28;20425;-74
2022/07/15 08:24:39;;;;;;;7.43;1.77;;;;;;;;;;5054821;28;20432;-73
2022/07/15 08:27:05;;;;;;;1.73;1.07;;;;;;;;;;5055240;28;20744;-74
2022/07/15 08:29:31;;;;;;;2.00;1.23;;;;;;;;;;5055379;28;20383;-74
2022/07/15 08:31:57;;;;;;;4.40;1.40;;;;;;;;;;5055203;28;20491;-73
2022/07/15 08:34:23;;;;;;;6.63;1.50;;;;;;;;;;5054942;28;20439;-74
2022/07/15 08:36:49;;;;;;;3.23;1.60;;;;;;;;;;5055050;28;20416;-74
2022/07/15 08:39:15;;;;;;;4.17;1.67;;;;;;;;;;5055391;28;20398;-74
2022/07/15 08:41:41;;;;;;;5.30;1.70;;;;;;;;;;5055034;28;20417;-74
2022/07/15 08:44:08;;;;;;;3.70;1.13;;;;;;;;;;5054374;28;20977;-74
2022/07/15 08:46:34;;;;;;;5.57;1.50;;;;;;;;;;5054877;28;20483;-74
2022/07/15 08:49:08;;;;;;;3.50;1.47;;;;;;;;;;5054680;28;20412;-73
2022/07/15 08:51:37;;;;;;;4.47;1.37;;;;;;;;;;5054822;28;20405;-74
2022/07/15 08:54:03;;;;;;;3.83;1.63;;;;;;;;;;5054346;28;20482;-74
2022/07/15 08:56:29;;;;;;;3.10;1.30;;;;;;;;;;5054664;28;20409;-74
2022/07/15 08:58:55;;;;;;;5.40;1.60;;;;;;;;;;5054332;28;20417;-74
2022/07/15 09:01:21;;;;;;;3.80;1.37;;;;;;;;;;5054397;28;20412;-74
2022/07/15 09:03:47;;;;;;;3.53;1.47;;;;;;;;;;5053624;28;20461;-74
2022/07/15 09:06:31;;;;;;;2.93;1.20;;;;;;;;;;5054477;28;20904;-75
2022/07/15 09:08:57;;;;;;;2.13;1.20;;;;;;;;;;5054115;28;20924;-75
2022/07/15 09:11:28;;;;;;;3.90;1.20;;;;;;;;;;5053110;28;20524;-75
2022/07/15 09:13:54;;;;;;;4.80;1.70;;;;;;;;;;5053946;28;20423;-75
2022/07/15 09:16:21;;;;;;;10.63;1.67;;;;;;;;;;5054588;28;20420;-76
2022/07/15 09:18:48;;;;;;;4.73;1.53;;;;;;;;;;5054509;28;20420;-75
2022/07/15 09:21:22;;;;;;;3.87;1.80;;;;;;;;;;5054134;28;20543;-75
2022/07/15 09:23:50;;;;;;;5.10;1.33;;;;;;;;;;5052981;28;20441;-75
2022/07/15 09:26:38;;;;;;;5.33;1.50;;;;;;;;;;5054455;28;20513;-75
2022/07/15 09:34:58;;;;;;;6.50;1.33;;;;;;;;;;5053709;28;20487;-75
2022/07/15 09:37:24;;;;;;;3.00;1.50;;;;;;;;;;5053824;28;20420;-76
2022/07/15 09:39:55;;;;;;;3.40;1.40;;;;;;;;;;5053919;28;20913;-75
2022/07/15 09:42:21;;;;;;;2.40;1.00;;;;;;;;;;5053470;28;20885;-76
2022/07/15 09:44:47;;;;;;;4.80;1.70;;;;;;;;;;5053890;28;20469;-75
2022/07/15 09:47:18;;;;;;;2.50;1.40;;;;;;;;;;5053816;28;20405;-76
2022/07/15 09:49:44;;;;;;;2.63;1.23;;;;;;;;;;5054041;28;20409;-76
2022/07/15 09:52:11;;;;;;;13.23;1.93;;;;;;;;;;5053832;28;20891;-76
2022/07/15 09:54:47;;;;;;;6.40;1.33;;;;;;;;;;5053219;28;20428;-76
2022/07/15 09:57:15;;;;;;;4.00;1.60;;;;;;;;;;5053526;28;20421;-77
2022/07/15 09:59:42;;;;;;;5.10;1.40;;;;;;;;;;5053481;28;20408;-75
2022/07/15 10:02:09;;;;;;;4.70;1.40;;;;;;;;;;5053127;28;20409;-76
2022/07/15 10:04:35;;;;;;;2.03;1.30;;;;;;;;;;5052660;28;20440;-77
2022/07/15 10:07:05;;;;;;;2.60;1.30;;;;;;;;;;5051868;28;20475;-76
2022/07/15 10:09:33;;;;;;;9.13;1.30;;;;;;;;;;5053043;28;20428;-76
2022/07/15 10:12:08;;;;;;;4.30;1.50;;;;;;;;;;5040851;28;20929;-75
2022/07/15 10:14:35;;;;;;;5.20;1.57;;;;;;;;;;5036220;28;20805;-77
2022/07/15 10:17:19;;;;;;;3.00;1.10;;;;;;;;;;5053576;28;20413;-76
2022/07/15 10:19:54;;;;;;;2.87;1.40;;;;;;;;;;5053504;28;20405;-76
2022/07/15 10:22:36;;;;;;;3.43;1.63;;;;;;;;;;5052611;28;20434;-76
2022/07/15 10:25:10;;;;;;;3.70;1.30;;;;;;;;;;5033466;28;20874;-76
2022/07/15 10:27:39;;;;;;;4.60;1.70;;;;;;;;;;5033130;28;20406;-76
2022/07/15 10:30:06;;;;;;;3.50;1.47;;;;;;;;;;5033282;28;20416;-76
2022/07/15 10:32:51;;;;;;;4.77;1.00;;;;;;;;;;5032892;28;20512;-76
2022/07/15 10:35:36;;;;;;;3.60;1.20;;;;;;;;;;5031423;28;20425;-76
2022/07/15 10:38:21;;;;;;;6.70;1.40;;;;;;;;;;5033088;28;20837;-77
2022/07/15 10:40:55;;;;;;;4.50;1.30;;;;;;;;;;5032997;28;20405;-77
2022/07/15 10:43:37;;;;;;;3.90;1.27;;;;;;;;;;5032634;28;20615;-76
2022/07/15 10:46:04;;;;;;;4.33;1.47;;;;;;;;;;5033041;28;20401;-76
2022/07/15 10:48:30;;;;;;;7.17;1.40;;;;;;;;;;5032181;28;20464;-76
2022/07/15 10:50:57;;;;;;;6.83;1.70;;;;;;;;;;5032934;28;20410;-76
2022/07/15 10:53:24;;;;;;;2.73;1.20;;;;;;;;;;5032530;28;20929;-77
2022/07/15 10:55:52;;;;;;;7.20;1.60;;;;;;;;;;5032733;28;20465;-77
2022/07/15 10:58:18;;;;;;;5.47;1.50;;;;;;;;;;5032816;28;20761;-76
2022/07/15 11:00:46;;;;;;;3.93;1.10;;;;;;;;;;5045343;28;20412;-76
2022/07/15 11:03:14;;;;;;;5.83;1.50;;;;;;;;;;5052564;28;20920;-76
2022/07/15 11:05:46;;;;;;;3.17;1.20;;;;;;;;;;5052258;28;20905;-77
2022/07/15 11:08:31;;;;;;;5.20;1.60;;;;;;;;;;5052318;28;20818;-76
2022/07/15 11:10:57;;;;;;;3.63;1.13;;;;;;;;;;5052432;28;20478;-76
2022/07/15 11:13:32;;;;;;;2.40;1.17;;;;;;;;;;5051987;28;20428;-76
2022/07/15 11:15:59;;;;;;;2.27;1.10;;;;;;;;;;5052395;28;20420;-77
2022/07/15 11:18:25;;;;;;;4.93;1.37;;;;;;;;;;5052304;28;20412;-77
2022/07/15 11:20:51;;;;;;;4.90;1.60;;;;;;;;;;5052424;28;20409;-76
2022/07/15 11:23:20;;;;;;;3.10;1.30;;;;;;;;;;5052210;28;20518;-76
2022/07/15 11:25:48;;;;;;;4.20;1.57;;;;;;;;;;5052157;28;20405;-76
2022/07/15 11:28:17;;;;;;;2.73;1.67;;;;;;;;;;5052456;28;20404;-76
2022/07/15 11:30:43;;;;;;;4.73;1.43;;;;;;;;;;5052214;28;20409;-76
2022/07/15 11:33:10;;;;;;;4.63;1.07;;;;;;;;;;5051959;28;20893;-76
2022/07/15 11:35:47;;;;;;;1.87;1.20;;;;;;;;;;5052176;28;20409;-76
2022/07/15 11:38:13;;;;;;;2.73;1.40;;;;;;;;;;5052099;28;20461;-77
2022/07/15 11:46:13;;;;;;;5.40;1.20;;;;;;;;;;5054054;28;20455;-76
2022/07/15 11:48:40;;;;;;;2.90;1.00;;;;;;;;;;5051477;28;20497;-76
2022/07/15 11:51:07;;;;;;;2.90;1.37;;;;;;;;;;5055989;28;20412;-76
2022/07/15 11:53:42;;;;;;;4.60;1.13;;;;;;;;;;5055371;28;20519;-76
2022/07/15 11:56:09;;;;;;;6.03;1.20;;;;;;;;;;5055769;28;20400;-76
2022/07/15 11:58:43;;;;;;;2.80;1.47;;;;;;;;;;5055596;28;20807;-76
2022/07/15 12:01:11;;;;;;;5.30;1.50;;;;;;;;;;5055761;28;20396;-76
2022/07/15 12:03:42;;;;;;;3.50;1.00;;;;;;;;;;5054999;28;20466;-76
2022/07/15 12:06:11;;;;;;;2.53;1.00;;;;;;;;;;5055522;28;20504;-76
2022/07/15 12:08:38;;;;;;;3.30;1.50;;;;;;;;;;5055164;28;20792;-77
2022/07/15 12:11:09;;;;;;;2.80;1.23;;;;;;;;;;5055779;28;20571;-77
2022/07/15 12:14:05;;;;;;;4.77;1.73;;;;;;;;;;5055221;28;20780;-75
2022/07/15 12:16:36;;;;;;;3.57;1.40;;;;;;;;;;5046381;28;20582;-77
2022/07/15 12:19:07;;;;;;;2.57;1.27;;;;;;;;;;5055523;28;20405;-76
2022/07/15 12:21:34;;;;;;;2.93;1.37;;;;;;;;;;5055280;28;20490;-76
2022/07/15 12:24:06;;;;;;;3.90;1.47;;;;;;;;;;5054760;28;20476;-76
2022/07/15 12:26:33;;;;;;;3.53;1.53;;;;;;;;;;5055109;28;20899;-76
2022/07/15 12:29:01;;;;;;;4.60;1.37;;;;;;;;;;5054947;28;20924;-76
2022/07/15 12:31:28;;;;;;;1.93;0.90;;;;;;;;;;5054788;28;20467;-76
2022/07/15 12:33:54;;;;;;;4.70;1.23;;;;;;;;;;5054639;28;20526;-76
2022/07/15 12:36:22;;;;;;;3.27;1.23;;;;;;;;;;5054730;28;20520;-77
2022/07/15 12:39:04;;;;;;;3.00;1.20;;;;;;;;;;5055340;28;20416;-77
2022/07/15 12:41:30;;;;;;;3.17;1.17;;;;;;;;;;5055074;28;21047;-76
2022/07/15 12:43:58;;;;;;;3.23;1.37;;;;;;;;;;5053115;28;20506;-76
2022/07/15 12:46:43;;;;;;;2.00;1.13;;;;;;;;;;5054649;28;20803;-77
2022/07/15 12:49:09;;;;;;;4.87;1.20;;;;;;;;;;5054686;28;20761;-76
2022/07/15 12:51:35;;;;;;;2.20;1.10;;;;;;;;;;5054758;28;20403;-76
2022/07/15 12:54:05;;;;;;;2.70;1.50;;;;;;;;;;5054317;28;20990;-76
2022/07/15 12:56:31;;;;;;;4.17;1.53;;;;;;;;;;5054332;28;20749;-76
2022/07/15 12:58:57;;;;;;;1.73;1.10;;;;;;;;;;5054435;28;20401;-76
2022/07/15 13:01:23;;;;;;;2.83;1.07;;;;;;;;;;5054526;28;20428;-77
2022/07/15 13:03:52;;;;;;;3.03;1.50;;;;;;;;;;5052774;28;20820;-76
2022/07/15 13:06:19;;;;;;;3.57;1.20;;;;;;;;;;5054428;28;20470;-76
2022/07/15 13:08:45;;;;;;;2.43;1.30;;;;;;;;;;5054079;28;20425;-77
2022/07/15 13:11:11;;;;;;;4.90;1.20;;;;;;;;;;5053089;28;20514;-76
2022/07/15 13:13:38;;;;;;;3.40;1.20;;;;;;;;;;5053959;28;20429;-77
2022/07/15 13:16:05;;;;;;;6.93;1.00;;;;;;;;;;5054452;28;20417;-77
2022/07/15 13:18:31;;;;;;;2.03;1.10;;;;;;;;;;5054301;28;20499;-77
2022/07/15 13:20:58;;;;;;;4.23;1.40;;;;;;;;;;5052825;28;20917;-76
2022/07/15 13:23:26;;;;;;;3.20;1.10;;;;;;;;;;5053590;28;20579;-76
2022/07/15 13:25:53;;;;;;;5.23;0.90;;;;;;;;;;5054028;28;20808;-76
2022/07/15 13:28:20;;;;;;;2.97;1.00;;;;;;;;;;5054299;28;20409;-76
2022/07/15 13:30:47;;;;;;;2.17;1.33;;;;;;;;;;5054154;28;20413;-76
2022/07/15 13:33:13;;;;;;;4.70;1.37;;;;;;;;;;5053611;28;20440;-76
2022/07/15 13:35:39;;;;;;;4.67;1.60;;;;;;;;;;5054242;28;20840;-76
2022/07/15 13:38:05;;;;;;;2.40;1.40;;;;;;;;;;5052495;28;20420;-77
2022/07/15 13:40:31;;;;;;;8.37;1.30;;;;;;;;;;5054132;28;20908;-76
2022/07/15 13:42:57;;;;;;;9.83;1.50;;;;;;;;;;5053182;28;20475;-78
2022/07/15 13:45:23;;;;;;;4.27;1.00;;;;;;;;;;5053526;28;20409;-76
2022/07/15 13:47:49;;;;;;;3.23;1.00;;;;;;;;;;5053528;28;20407;-76
2022/07/15 13:53:00;;;;;;;1.90;1.00;;;;;;;;;;5052391;28;20795;-77
2022/07/15 13:55:26;;;;;;;3.20;1.33;;;;;;;;;;5053526;28;20484;-76
2022/07/15 13:57:52;;;;;;;2.90;1.43;;;;;;;;;;5053673;28;20464;-76
2022/07/15 14:00:22;;;;;;;2.80;1.10;;;;;;;;;;5053492;28;20416;-76
2022/07/15 14:02:52;;;;;;;2.80;0.97;;;;;;;;;;5053080;28;20550;-77
2022/07/15 14:05:19;;;;;;;2.13;1.27;;;;;;;;;;5053263;28;20897;-76
2022/07/15 14:07:44;;;;;;;3.80;1.30;;;;;;;;;;5053269;28;20744;-76
2022/07/15 14:10:11;;;;;;;3.90;1.20;;;;;;;;;;5052590;28;20515;-76
2022/07/15 14:12:37;;;;;;;1.67;0.80;;;;;;;;;;5052660;28;20503;-76
2022/07/15 14:15:03;;;;;;;4.10;1.33;;;;;;;;;;5053176;28;20459;-77
2022/07/15 14:17:29;;;;;;;2.70;1.07;;;;;;;;;;5052518;28;20485;-77
2022/07/15 14:19:55;;;;;;;5.00;1.63;;;;;;;;;;5053067;28;20948;-76
2022/07/15 14:22:22;;;;;;;3.10;1.10;;;;;;;;;;5052668;28;20901;-76
2022/07/15 14:24:48;;;;;;;2.13;1.03;;;;;;;;;;5053096;28;20424;-76
2022/07/15 14:27:15;;;;;;;6.90;1.13;;;;;;;;;;5053011;28;20416;-76
2022/07/15 14:29:41;;;;;;;4.47;1.13;;;;;;;;;;5052894;28;20404;-76
2022/07/15 14:32:07;;;;;;;3.50;0.97;;;;;;;;;;5051974;28;20874;-76
2022/07/15 14:34:33;;;;;;;2.80;1.00;;;;;;;;;;5050462;28;20439;-76
2022/07/15 14:36:59;;;;;;;4.30;1.10;;;;;;;;;;5033059;28;20784;-76
2022/07/15 14:39:25;;;;;;;2.93;1.03;;;;;;;;;;5036755;28;20425;-76
2022/07/15 14:41:51;;;;;;;3.03;1.13;;;;;;;;;;5052778;28;20421;-76
2022/07/15 14:44:17;;;;;;;2.10;0.90;;;;;;;;;;5052518;28;20472;-76
2022/07/15 14:46:43;;;;;;;4.50;1.17;;;;;;;;;;5052730;28;20404;-76
2022/07/15 14:49:09;;;;;;;3.73;1.30;;;;;;;;;;5052706;28;20409;-76
2022/07/15 14:51:35;;;;;;;2.77;1.13;;;;;;;;;;5052723;28;20876;-76
2022/07/15 14:54:01;;;;;;;2.17;1.00;;;;;;;;;;5052352;28;20441;-76
2022/07/15 14:56:27;;;;;;;4.90;1.30;;;;;;;;;;5052735;28;20412;-76
2022/07/15 14:58:53;;;;;;;2.40;0.90;;;;;;;;;;5052743;28;20478;-76
2022/07/15 15:01:19;;;;;;;2.83;1.00;;;;;;;;;;5052583;28;20516;-76
2022/07/15 15:03:45;;;;;;;3.97;1.03;;;;;;;;;;5052250;28;20823;-76